createdAt,value
2023-05-12T04:05:46.454Z,100514.00
2023-05-12T04:08:50.979Z,100520.72
2023-05-12T04:11:53.602Z,100521.38
2023-05-12T04:14:56.426Z,100531.31
2023-05-12T04:18:01.020Z,100530.12
2023-05-12T04:21:04.176Z,100533.19
2023-05-12T04:24:06.949Z,100525.94
2023-05-12T04:27:12.080Z,100530.97
2023-05-12T04:30:14.869Z,100532.34
2023-05-12T04:33:18.468Z,100541.06
2023-05-12T04:36:21.341Z,100529.44
2023-05-12T04:39:25.385Z,100539.53
2023-05-12T04:42:28.236Z,100534.63
2023-05-12T04:45:31.902Z,100538.00
2023-05-12T04:48:34.725Z,100537.12
2023-05-12T04:51:42.948Z,100533.75
2023-05-12T04:54:45.833Z,100532.22
2023-05-12T04:57:48.724Z,100529.28
2023-05-12T05:00:51.496Z,100535.03
2023-05-12T05:03:54.595Z,100535.87
2023-05-12T05:06:57.408Z,100533.66
2023-05-12T05:10:01.130Z,100538.91
2023-05-12T05:13:04.906Z,100539.38
2023-05-12T05:16:07.950Z,100546.16
2023-05-12T05:19:20.068Z,100542.94
2023-05-12T05:22:28.579Z,100547.31
2023-05-12T05:25:31.150Z,100534.31
2023-05-12T05:28:34.387Z,100543.22
2023-05-12T05:31:37.179Z,100541.19
2023-05-12T05:34:40.392Z,100537.69
2023-05-12T05:37:43.049Z,100548.81
2023-05-12T05:40:53.095Z,100544.06
2023-05-12T05:43:57.159Z,100551.59
2023-05-12T05:47:00.339Z,100540.50
2023-05-12T05:50:04.554Z,100546.97
2023-05-12T05:53:09.004Z,100557.06
2023-05-12T05:56:11.652Z,100555.16
2023-05-12T05:59:14.646Z,100547.91
2023-05-12T06:02:17.859Z,100560.75
2023-05-12T06:05:21.176Z,100554.00
2023-05-12T06:08:24.199Z,100561.59
2023-05-12T06:11:27.370Z,100565.41
2023-05-12T06:14:30.045Z,100570.72
2023-05-12T06:17:33.001Z,100564.94
2023-05-12T06:20:35.608Z,100563.03
2023-05-12T06:23:38.436Z,100566.50
2023-05-12T06:26:41.249Z,100558.97
2023-05-12T06:29:44.142Z,100563.28
2023-05-12T06:32:46.721Z,100558.69
2023-05-12T06:35:49.654Z,100560.03
2023-05-12T06:38:52.310Z,100564.25
2023-05-12T06:41:55.404Z,100566.88
2023-05-12T06:44:58.107Z,100569.13
2023-05-12T06:48:02.047Z,100566.16
2023-05-12T06:51:04.931Z,100562.56
2023-05-12T06:54:07.925Z,100558.72
2023-05-12T06:57:10.893Z,100565.63
2023-05-12T07:00:14.640Z,100559.16
2023-05-12T07:03:17.591Z,100563.16
2023-05-12T07:06:21.245Z,100564.72
2023-05-12T07:09:23.945Z,100574.31
2023-05-12T07:12:26.772Z,100567.84
2023-05-12T07:15:32.980Z,100569.19
2023-05-12T07:18:36.460Z,100557.38
2023-05-12T07:21:39.202Z,100556.97
2023-05-12T07:24:42.303Z,100558.84
2023-05-12T07:27:45.003Z,100559.50
2023-05-12T07:30:47.813Z,100560.41
2023-05-12T07:33:50.433Z,100564.12
2023-05-12T07:36:53.288Z,100568.03
2023-05-12T07:39:56.008Z,100559.50
2023-05-12T07:42:58.948Z,100561.44
2023-05-12T07:46:01.561Z,100561.31
2023-05-12T07:49:04.689Z,100563.09
2023-05-12T07:52:07.242Z,100568.13
2023-05-12T07:55:10.230Z,100564.97
2023-05-12T07:58:13.060Z,100564.97
2023-05-12T08:01:15.982Z,100571.41
2023-05-12T08:04:18.971Z,100565.16
2023-05-12T08:07:21.711Z,100564.97
2023-05-12T08:10:29.576Z,100572.37
2023-05-12T08:13:32.198Z,100581.44
2023-05-12T08:16:35.258Z,100579.56
2023-05-12T08:19:37.833Z,100578.72
2023-05-12T08:22:40.989Z,100586.09
2023-05-12T08:25:44.589Z,100575.31
2023-05-12T08:28:47.504Z,100573.41
2023-05-12T08:31:50.271Z,100582.09
2023-05-12T08:34:53.241Z,100583.44
2023-05-12T08:37:57.072Z,100581.88
2023-05-12T08:41:42.171Z,100586.19
2023-05-12T08:44:45.815Z,100581.84
2023-05-12T08:47:50.480Z,100586.50
2023-05-12T08:50:54.591Z,100584.69
2023-05-12T08:54:19.254Z,100593.81
2023-05-12T08:57:22.069Z,100595.66
2023-05-12T09:00:25.921Z,100594.69
2023-05-12T09:03:29.205Z,100599.75
2023-05-12T09:06:32.989Z,100603.50
2023-05-12T09:09:37.151Z,100607.47
2023-05-12T09:12:40.290Z,100609.47
2023-05-12T09:15:46.001Z,100618.81
2023-05-12T09:18:59.437Z,100612.84
2023-05-12T09:22:02.134Z,100612.47
2023-05-12T09:25:19.215Z,100619.81
2023-05-12T09:28:22.174Z,100622.41
2023-05-12T09:31:26.012Z,100625.22
2023-05-12T09:34:35.618Z,100629.12
2023-05-12T09:37:40.418Z,100637.63
2023-05-12T09:40:43.438Z,100647.78
2023-05-12T09:43:46.974Z,100641.06
2023-05-12T09:46:50.017Z,100646.56
2023-05-12T09:49:53.066Z,100650.22
2023-05-12T09:52:55.678Z,100648.03
2023-05-12T09:55:58.539Z,100658.00
2023-05-12T09:59:03.623Z,100654.31
2023-05-12T10:02:09.738Z,100652.88
2023-05-12T10:05:20.914Z,100651.19
2023-05-12T10:08:38.455Z,100654.47
2023-05-12T10:11:42.821Z,100652.69
2023-05-12T10:14:46.504Z,100663.94
2023-05-12T10:17:53.101Z,100658.59
2023-05-12T10:20:58.073Z,100658.09
2023-05-12T10:24:04.017Z,100663.94
2023-05-12T10:27:08.266Z,100657.03
2023-05-12T10:30:12.433Z,100660.75
2023-05-12T10:33:15.826Z,100666.16
2023-05-12T10:36:19.697Z,100661.91
2023-05-12T10:39:32.822Z,100662.41
2023-05-12T10:42:40.844Z,100658.56
2023-05-12T10:45:43.757Z,100655.53
2023-05-12T10:49:10.227Z,100649.34
2023-05-12T10:52:13.540Z,100658.09
2023-05-12T10:55:16.737Z,100647.19
2023-05-12T10:58:20.224Z,100655.59
2023-05-12T11:01:25.649Z,100655.41
2023-05-12T11:05:06.798Z,100661.66
2023-05-12T11:08:11.610Z,100664.37
2023-05-12T11:11:18.554Z,100664.37
2023-05-12T11:14:21.718Z,100658.09
2023-05-12T11:17:24.614Z,100662.66
2023-05-12T11:20:30.224Z,100664.63
2023-05-12T11:23:33.700Z,100663.50
2023-05-12T11:26:36.689Z,100663.13
2023-05-12T11:29:41.347Z,100668.53
2023-05-12T11:32:44.472Z,100663.13
2023-05-12T11:35:47.329Z,100654.66
2023-05-12T11:38:53.762Z,100653.50
2023-05-12T11:42:13.576Z,100648.84
2023-05-12T11:45:25.225Z,100665.69
2023-05-12T11:48:37.517Z,100653.59
2023-05-12T11:51:43.594Z,100650.72
2023-05-12T11:54:49.912Z,100654.53
2023-05-12T11:57:59.899Z,100655.34
2023-05-12T12:01:11.899Z,100659.22
2023-05-12T12:04:14.975Z,100655.16
2023-05-12T12:07:32.086Z,100656.63
2023-05-12T12:10:35.062Z,100655.41
2023-05-12T12:13:37.737Z,100655.62
2023-05-12T12:16:40.725Z,100662.84
2023-05-12T12:19:43.410Z,100662.12
2023-05-12T12:22:46.313Z,100665.78
2023-05-12T12:25:48.996Z,100679.03
2023-05-12T12:28:51.886Z,100674.16
2023-05-12T12:31:54.551Z,100680.75
2023-05-12T12:35:00.128Z,100671.34
2023-05-12T12:38:02.810Z,100671.22
2023-05-12T12:41:07.028Z,100674.31
2023-05-12T12:44:09.678Z,100673.50
2023-05-12T12:47:12.632Z,100673.72
2023-05-12T12:50:15.448Z,100667.34
2023-05-12T12:53:18.680Z,100667.81
2023-05-12T12:56:23.759Z,100665.81
2023-05-12T12:59:28.001Z,100672.38
2023-05-12T13:02:30.765Z,100671.75
2023-05-12T13:05:34.100Z,100665.47
2023-05-12T13:08:36.968Z,100670.06
2023-05-12T13:11:39.986Z,100662.66
2023-05-12T13:14:42.601Z,100671.28
2023-05-12T13:17:48.420Z,100663.72
2023-05-12T13:20:51.589Z,100671.94
2023-05-12T13:23:54.451Z,100668.59
2023-05-12T13:26:57.485Z,100662.53
2023-05-12T13:30:00.338Z,100656.47
2023-05-12T13:33:05.132Z,100660.34
2023-05-12T13:36:08.969Z,100658.47
2023-05-12T13:39:12.695Z,100666.06
2023-05-12T13:42:15.629Z,100662.84
2023-05-12T13:45:19.661Z,100666.34
2023-05-12T13:48:22.927Z,100661.97
2023-05-12T13:51:26.036Z,100669.59
2023-05-12T13:54:29.099Z,100670.75
2023-05-12T13:57:31.691Z,100672.00
2023-05-12T14:00:34.966Z,100666.44
2023-05-12T14:03:39.024Z,100666.28
2023-05-12T14:06:41.629Z,100667.94
2023-05-12T14:09:44.541Z,100674.56
2023-05-12T14:12:47.923Z,100673.69
2023-05-12T14:15:51.029Z,100674.06
2023-05-12T14:18:54.304Z,100676.78
2023-05-12T14:21:57.381Z,100664.16
2023-05-12T14:25:00.592Z,100676.12
2023-05-12T14:28:03.742Z,100670.06
2023-05-12T14:31:06.699Z,100682.19
2023-05-12T14:34:12.670Z,100684.37
2023-05-12T14:37:15.373Z,100690.06
2023-05-12T14:40:18.248Z,100690.94
2023-05-12T14:43:21.060Z,100691.94
2023-05-12T14:46:25.843Z,100700.00
2023-05-12T14:49:28.527Z,100701.72
2023-05-12T14:52:33.931Z,100711.63
2023-05-12T14:55:36.944Z,100707.78
2023-05-12T14:58:39.825Z,100714.16
2023-05-12T15:01:42.633Z,100709.44
2023-05-12T15:04:45.549Z,100716.69
2023-05-12T15:07:48.182Z,100718.00
2023-05-12T15:10:51.074Z,100711.78
2023-05-12T15:13:53.738Z,100721.03
2023-05-12T15:16:56.539Z,100719.03
2023-05-12T15:19:59.319Z,100719.88
2023-05-12T15:23:02.331Z,100724.41
2023-05-12T15:26:27.229Z,100725.09
2023-05-12T15:29:32.526Z,100721.56
2023-05-12T15:32:35.261Z,100724.75
2023-05-12T15:35:39.749Z,100729.63
2023-05-12T15:38:42.569Z,100726.94
2023-05-12T15:41:45.595Z,100729.13
2023-05-12T15:44:48.251Z,100723.41
2023-05-12T15:47:51.327Z,100726.75
2023-05-12T15:50:53.926Z,100726.75
